createdAt,value
2023-04-26T00:01:51.288Z,6.51
2023-04-26T00:06:54.484Z,6.49
2023-04-26T00:11:57.850Z,6.53
2023-04-26T00:17:01.673Z,6.56
2023-04-26T00:22:05.622Z,6.56
2023-04-26T00:27:10.438Z,6.56
2023-04-26T00:32:13.456Z,6.53
2023-04-26T00:37:16.863Z,6.48
2023-04-26T00:42:19.914Z,6.43
2023-04-26T00:47:23.425Z,6.35
2023-04-26T00:52:27.886Z,6.26
2023-04-26T00:57:31.348Z,6.17
2023-04-26T01:02:34.381Z,6.10
2023-04-26T01:07:39.068Z,6.07
2023-04-26T01:12:42.182Z,6.09
2023-04-26T01:17:47.573Z,6.14
2023-04-26T01:22:50.732Z,6.19
2023-04-26T01:27:53.832Z,6.21
2023-04-26T01:32:57.083Z,6.18
2023-04-26T01:37:59.962Z,6.08
2023-04-26T01:43:03.343Z,5.97
2023-04-26T01:48:06.812Z,5.92
2023-04-26T01:53:09.745Z,5.91
2023-04-26T01:58:12.754Z,5.93
2023-04-26T02:03:15.815Z,6.00
2023-04-26T02:08:18.957Z,6.08
2023-04-26T02:13:22.051Z,6.11
2023-04-26T02:18:25.733Z,6.11
2023-04-26T02:23:28.659Z,5.99
2023-04-26T02:28:32.279Z,5.85
2023-04-26T02:33:35.594Z,5.77
2023-04-26T02:38:38.622Z,5.73
2023-04-26T02:43:41.520Z,5.65
2023-04-26T02:48:44.644Z,5.55
2023-04-26T02:53:47.544Z,5.39
2023-04-26T02:58:50.760Z,5.27
2023-04-26T03:03:54.892Z,5.17
2023-04-26T03:08:57.848Z,5.07
2023-04-26T03:14:00.834Z,4.96
2023-04-26T03:19:03.737Z,4.86
2023-04-26T03:24:07.753Z,4.76
2023-04-26T03:29:11.057Z,4.66
2023-04-26T03:34:16.687Z,4.58
2023-04-26T03:39:19.992Z,4.53
2023-04-26T03:44:22.943Z,4.46
2023-04-26T03:49:25.838Z,4.41
2023-04-26T03:54:28.756Z,4.42
2023-04-26T03:59:31.954Z,4.76
2023-04-26T04:04:35.300Z,5.14
2023-04-26T04:09:38.407Z,5.35
2023-04-26T04:14:41.451Z,5.71
2023-04-26T04:19:47.721Z,5.93
2023-04-26T04:24:51.288Z,6.18
2023-04-26T04:29:55.364Z,6.39
2023-04-26T04:34:59.215Z,6.60
2023-04-26T04:40:02.322Z,6.93
2023-04-26T04:45:06.336Z,7.22
2023-04-26T04:50:10.172Z,7.45
2023-04-26T04:55:13.124Z,7.69
2023-04-26T05:00:16.909Z,7.90
2023-04-26T05:05:19.897Z,8.07
2023-04-26T05:10:22.904Z,8.15
2023-04-26T05:15:25.893Z,8.54
2023-04-26T05:20:29.560Z,8.56
2023-04-26T05:25:36.350Z,8.31
2023-04-26T05:30:39.369Z,8.52
2023-04-26T05:35:42.283Z,8.86
2023-04-26T05:40:45.264Z,8.98
2023-04-26T05:45:56.094Z,8.75
2023-04-26T05:50:59.158Z,8.93
2023-04-26T05:56:02.361Z,8.68
2023-04-26T06:01:05.428Z,8.90
2023-04-26T06:06:08.585Z,8.68
2023-04-26T06:11:11.649Z,8.45
2023-04-26T06:16:14.698Z,8.92
2023-04-26T06:21:17.819Z,8.91
2023-04-26T06:26:20.746Z,8.80
2023-04-26T06:31:23.724Z,8.87
2023-04-26T06:36:28.197Z,9.21
2023-04-26T06:41:31.462Z,9.52
2023-04-26T06:46:34.604Z,9.04
2023-04-26T06:51:37.531Z,9.08
2023-04-26T06:56:40.652Z,9.59
2023-04-26T07:01:43.682Z,9.63
2023-04-26T07:06:47.043Z,9.10
2023-04-26T07:11:49.996Z,9.07
2023-04-26T07:16:52.925Z,9.50
2023-04-26T07:21:55.792Z,9.19
2023-04-26T07:26:59.058Z,9.34
2023-04-26T07:32:02.264Z,9.62
2023-04-26T07:37:05.302Z,9.62
2023-04-26T07:42:08.234Z,9.37
2023-04-26T07:47:14.440Z,9.21
2023-04-26T07:52:17.468Z,8.92
2023-04-26T07:57:20.464Z,8.70
2023-04-26T08:02:32.982Z,8.78
2023-04-26T08:07:41.321Z,9.11
2023-04-26T08:12:44.279Z,9.34
2023-04-26T08:17:48.423Z,9.38
2023-04-26T08:22:57.066Z,9.44
2023-04-26T08:27:59.971Z,9.06
2023-04-26T08:33:03.911Z,8.70
2023-04-26T08:38:07.329Z,8.51
2023-04-26T08:43:11.837Z,8.62
2023-04-26T08:48:16.352Z,8.80
2023-04-26T08:53:20.158Z,8.61
2023-04-26T08:58:24.029Z,8.80
2023-04-26T09:03:28.330Z,9.13
2023-04-26T09:08:34.949Z,9.27
2023-04-26T09:13:38.136Z,9.48
2023-04-26T09:18:57.311Z,9.53
2023-04-26T09:24:04.510Z,9.61
2023-04-26T09:29:19.201Z,10.16
2023-04-26T09:34:22.218Z,10.60
2023-04-26T09:39:37.777Z,10.09
2023-04-26T09:44:40.988Z,9.77
2023-04-26T09:49:52.099Z,9.81
2023-04-26T09:54:55.879Z,10.07
2023-04-26T10:00:00.968Z,9.77
2023-04-26T10:05:06.363Z,10.35
2023-04-26T10:10:11.557Z,10.73
2023-04-26T10:15:15.476Z,10.97
2023-04-26T10:20:21.473Z,10.71
2023-04-26T10:25:39.067Z,10.09
2023-04-26T10:30:59.973Z,9.68
2023-04-26T10:36:08.060Z,9.65
2023-04-26T10:41:32.299Z,9.81
2023-04-26T10:46:40.370Z,9.74
2023-04-26T10:52:16.486Z,9.62
2023-04-26T10:57:21.664Z,9.88
2023-04-26T11:02:53.356Z,9.57
2023-04-26T11:08:14.799Z,9.32
2023-04-26T11:13:19.555Z,8.99
2023-04-26T11:18:22.637Z,9.19
2023-04-26T11:23:28.626Z,9.54
2023-04-26T11:28:34.417Z,9.45
2023-04-26T11:33:37.935Z,9.10
2023-04-26T11:38:41.359Z,8.89
2023-04-26T11:43:44.414Z,8.65
2023-04-26T11:48:47.906Z,8.71
2023-04-26T11:53:51.980Z,8.75
2023-04-26T11:58:55.464Z,9.02
2023-04-26T12:04:00.217Z,9.11
2023-04-26T12:09:05.942Z,9.17
2023-04-26T12:14:10.399Z,8.95
2023-04-26T12:19:13.603Z,8.81
2023-04-26T12:24:34.312Z,8.81
2023-04-26T12:29:37.337Z,8.94
2023-04-26T12:34:40.430Z,8.60
2023-04-26T12:39:44.555Z,8.68
2023-04-26T12:44:47.579Z,8.63
2023-04-26T12:49:50.581Z,8.55
2023-04-26T12:54:54.045Z,8.90
2023-04-26T12:59:56.988Z,9.28
2023-04-26T13:05:01.794Z,9.67
2023-04-26T13:10:06.418Z,9.53
2023-04-26T13:15:10.131Z,9.21
2023-04-26T13:20:13.545Z,8.85
2023-04-26T13:25:19.256Z,9.08
2023-04-26T13:30:22.317Z,9.27
2023-04-26T13:35:25.225Z,9.19
2023-04-26T13:40:28.209Z,8.86
2023-04-26T13:45:34.999Z,8.74
2023-04-26T13:50:38.005Z,8.72
2023-04-26T13:55:41.413Z,8.58
2023-04-26T14:00:47.458Z,8.93
2023-04-26T14:05:50.541Z,9.26
2023-04-26T14:10:53.744Z,9.17
2023-04-26T14:15:56.835Z,9.22
2023-04-26T14:20:59.951Z,9.11
2023-04-26T14:26:02.976Z,9.07
2023-04-26T14:31:06.068Z,9.13
2023-04-26T14:36:08.996Z,9.12
2023-04-26T14:41:16.641Z,9.03
2023-04-26T14:46:19.760Z,9.16
2023-04-26T14:51:22.712Z,9.27
2023-04-26T14:56:25.720Z,9.33
2023-04-26T15:01:29.106Z,9.39
2023-04-26T15:06:33.590Z,9.20
2023-04-26T15:11:36.578Z,9.11
2023-04-26T15:16:39.679Z,9.11
2023-04-26T15:21:42.699Z,9.24
2023-04-26T15:26:45.766Z,9.42
2023-04-26T15:31:48.883Z,9.25
2023-04-26T15:36:51.903Z,9.16
2023-04-26T15:41:54.840Z,9.40
2023-04-26T15:46:58.079Z,9.85
2023-04-26T15:52:06.557Z,9.67
2023-04-26T15:57:09.961Z,9.34
2023-04-26T16:02:13.206Z,9.17
2023-04-26T16:07:16.987Z,9.17
2023-04-26T16:12:19.986Z,9.65
2023-04-26T16:17:23.196Z,9.98
2023-04-26T16:22:26.325Z,10.03
2023-04-26T16:27:29.373Z,9.80
2023-04-26T16:32:32.567Z,9.52
2023-04-26T16:37:35.931Z,9.36
2023-04-26T16:42:43.256Z,9.54
2023-04-26T16:47:46.326Z,9.55
2023-04-26T16:52:49.345Z,9.42
2023-04-26T16:57:52.497Z,9.29
2023-04-26T17:02:55.849Z,9.30
2023-04-26T17:07:58.944Z,9.24
2023-04-26T17:13:04.374Z,9.23
2023-04-26T17:18:08.534Z,9.26
2023-04-26T17:23:11.883Z,9.02
2023-04-26T17:28:14.824Z,9.06
2023-04-26T17:33:18.126Z,8.87
2023-04-26T17:38:21.310Z,8.70
2023-04-26T17:43:24.174Z,8.61
2023-04-26T17:48:29.138Z,8.39
2023-04-26T17:53:32.309Z,8.10
2023-04-26T17:58:35.255Z,7.74
2023-04-26T18:03:39.272Z,7.50
2023-04-26T18:08:42.572Z,7.27
2023-04-26T18:13:45.589Z,7.08
2023-04-26T18:18:48.575Z,6.87
2023-04-26T18:23:51.601Z,6.66
2023-04-26T18:28:55.462Z,6.49
2023-04-26T18:33:58.431Z,6.34
2023-04-26T18:39:01.553Z,6.21
2023-04-26T18:44:11.763Z,6.08
2023-04-26T18:49:14.715Z,5.94
2023-04-26T18:54:17.730Z,5.79
2023-04-26T18:59:20.579Z,5.63
2023-04-26T19:04:23.738Z,5.52
2023-04-26T19:09:27.029Z,5.43
2023-04-26T19:14:29.860Z,5.35
2023-04-26T19:19:33.019Z,5.31
2023-04-26T19:24:38.814Z,5.26
2023-04-26T19:29:41.834Z,5.16
2023-04-26T19:34:45.521Z,5.05
2023-04-26T19:39:48.519Z,5.01
2023-04-26T19:44:51.451Z,4.90
2023-04-26T19:49:55.606Z,4.83
2023-04-26T19:54:58.647Z,4.76
2023-04-26T20:00:01.853Z,4.74
2023-04-26T20:05:05.344Z,4.70
2023-04-26T20:10:09.388Z,4.64
2023-04-26T20:15:13.989Z,4.44
2023-04-26T20:20:17.082Z,4.31
2023-04-26T20:25:20.219Z,4.24
2023-04-26T20:30:23.236Z,4.17
2023-04-26T20:35:27.007Z,4.07
2023-04-26T20:40:30.057Z,3.82
2023-04-26T20:45:32.938Z,3.58
2023-04-26T20:50:37.154Z,3.55
2023-04-26T20:55:41.238Z,3.57
2023-04-26T21:00:44.603Z,3.59
2023-04-26T21:05:47.790Z,3.56
2023-04-26T21:10:50.897Z,3.55
2023-04-26T21:15:53.996Z,3.47
2023-04-26T21:20:56.892Z,3.42
2023-04-26T21:25:59.846Z,3.38
2023-04-26T21:31:07.754Z,3.34
2023-04-26T21:36:10.769Z,3.34
2023-04-26T21:41:13.830Z,3.24
2023-04-26T21:46:16.936Z,3.18
2023-04-26T21:51:22.964Z,3.14
2023-04-26T21:56:26.301Z,3.13
2023-04-26T22:01:29.202Z,3.19
2023-04-26T22:06:32.261Z,3.23
2023-04-26T22:11:35.347Z,3.18
2023-04-26T22:16:38.194Z,3.12
2023-04-26T22:21:41.362Z,3.10
2023-04-26T22:26:44.224Z,3.03
2023-04-26T22:31:47.237Z,2.95
2023-04-26T22:36:50.150Z,2.90
2023-04-26T22:41:53.161Z,2.84
2023-04-26T22:46:59.252Z,2.80
2023-04-26T22:52:09.782Z,2.78
2023-04-26T22:57:18.717Z,2.73
2023-04-26T23:02:21.807Z,2.70
2023-04-26T23:07:24.726Z,2.66
2023-04-26T23:12:27.804Z,2.65
2023-04-26T23:17:32.126Z,2.62
2023-04-26T23:22:35.010Z,2.55
2023-04-26T23:27:38.259Z,2.53
2023-04-26T23:32:41.178Z,2.53
2023-04-26T23:37:44.206Z,2.49
2023-04-26T23:42:47.131Z,2.48
2023-04-26T23:47:50.503Z,2.46
2023-04-26T23:52:53.380Z,2.44
2023-04-26T23:57:56.427Z,2.43
